createdAt,value
2022-11-05T00:00:07.518Z,6.6
2022-11-05T00:01:10.969Z,6.5
2022-11-05T00:02:14.719Z,6.6
2022-11-05T00:03:18.560Z,6.6
2022-11-05T00:04:28.236Z,6.6
2022-11-05T00:05:34.337Z,6.5
2022-11-05T00:06:36.861Z,6.5
2022-11-05T00:07:41.273Z,6.5
2022-11-05T00:08:44.623Z,6.5
2022-11-05T00:09:48.489Z,6.5
2022-11-05T00:11:06.359Z,6.5
2022-11-05T00:12:09.626Z,6.5
2022-11-05T00:13:14.617Z,6.5
2022-11-05T00:14:17.635Z,6.5
2022-11-05T00:15:20.687Z,6.4
2022-11-05T00:16:23.782Z,6.4
2022-11-05T00:17:26.891Z,6.4
2022-11-05T00:18:30.260Z,6.4
2022-11-05T00:19:33.448Z,6.4
2022-11-05T00:20:37.471Z,6.4
2022-11-05T00:21:40.906Z,6.4
2022-11-05T00:22:44.325Z,6.4
2022-11-05T00:23:47.761Z,6.4
2022-11-05T00:24:50.711Z,6.4
2022-11-05T00:25:53.427Z,6.4
2022-11-05T00:26:56.443Z,6.4
2022-11-05T00:28:00.204Z,6.4
2022-11-05T00:29:02.442Z,6.4
2022-11-05T00:30:05.441Z,6.4
2022-11-05T00:31:08.260Z,6.4
2022-11-05T00:32:11.068Z,6.3
2022-11-05T00:33:14.128Z,6.3
2022-11-05T00:34:16.845Z,6.3
2022-11-05T00:35:19.653Z,6.3
2022-11-05T00:36:23.116Z,6.3
2022-11-05T00:37:25.814Z,6.3
2022-11-05T00:38:27.971Z,6.3
2022-11-05T00:39:31.075Z,6.3
2022-11-05T00:40:34.891Z,6.2
2022-11-05T00:41:38.280Z,6.2
2022-11-05T00:42:40.884Z,6.2
2022-11-05T00:43:44.892Z,6.2
2022-11-05T00:44:47.893Z,6.2
2022-11-05T00:45:51.473Z,6.2
2022-11-05T00:47:00.652Z,6.2
2022-11-05T00:48:04.030Z,6.2
2022-11-05T00:49:07.514Z,6.2
2022-11-05T00:50:10.237Z,6.2
2022-11-05T00:51:13.867Z,6.2
2022-11-05T00:52:17.326Z,6.2
2022-11-05T00:53:20.051Z,6.2
2022-11-05T00:54:23.511Z,6.2
2022-11-05T00:55:26.709Z,6.1
2022-11-05T00:56:30.086Z,6.1
2022-11-05T00:57:32.695Z,6.1
2022-11-05T00:58:35.572Z,6.1
2022-11-05T00:59:38.585Z,6.1
2022-11-05T01:00:41.025Z,6.1
2022-11-05T01:01:44.952Z,6.1
2022-11-05T01:02:49.456Z,6.1
2022-11-05T01:03:53.427Z,6.1
2022-11-05T01:04:56.686Z,6.1
2022-11-05T01:06:00.343Z,6.1
2022-11-05T01:07:02.996Z,6.1
2022-11-05T01:08:06.732Z,6.1
2022-11-05T01:09:09.879Z,6.1
2022-11-05T01:10:12.403Z,6
2022-11-05T01:11:15.514Z,6.1
2022-11-05T01:12:18.776Z,6.1
2022-11-05T01:13:22.832Z,6.1
2022-11-05T01:14:25.714Z,6.1
2022-11-05T01:15:28.696Z,6.1
2022-11-05T01:16:31.533Z,6.1
2022-11-05T01:17:34.636Z,6.1
2022-11-05T01:18:37.435Z,6.1
2022-11-05T01:19:40.443Z,6.1
2022-11-05T01:20:43.744Z,6.1
2022-11-05T01:21:45.903Z,6
2022-11-05T01:22:49.426Z,6
2022-11-05T01:23:53.160Z,6
2022-11-05T01:24:55.973Z,6
2022-11-05T01:25:59.334Z,6
2022-11-05T01:27:02.141Z,6
2022-11-05T01:28:05.694Z,6
2022-11-05T01:29:09.252Z,5.9
2022-11-05T01:30:12.063Z,5.9
2022-11-05T01:31:15.235Z,5.9
2022-11-05T01:32:18.309Z,5.9
2022-11-05T01:33:20.856Z,5.9
2022-11-05T01:34:23.299Z,5.9
2022-11-05T01:35:25.759Z,5.9
2022-11-05T01:36:28.599Z,5.9
2022-11-05T01:37:31.440Z,5.9
2022-11-05T01:38:34.446Z,5.9
2022-11-05T01:39:37.269Z,6
2022-11-05T01:40:40.711Z,5.9
2022-11-05T01:41:43.242Z,5.9
2022-11-05T01:42:46.516Z,5.9
2022-11-05T01:43:50.269Z,5.9
2022-11-05T01:44:53.370Z,5.9
2022-11-05T01:45:57.000Z,5.9
2022-11-05T01:47:00.459Z,5.9
2022-11-05T01:48:03.918Z,6
2022-11-05T01:49:06.670Z,5.9
2022-11-05T01:50:10.292Z,5.9
2022-11-05T01:51:13.401Z,5.9
2022-11-05T01:52:17.244Z,5.9
2022-11-05T01:53:19.579Z,5.9
2022-11-05T01:54:22.947Z,5.9
2022-11-05T01:55:26.489Z,5.9
2022-11-05T01:56:29.915Z,5.9
2022-11-05T01:57:32.807Z,5.9
2022-11-05T01:58:35.975Z,5.9
2022-11-05T01:59:39.419Z,5.9
2022-11-05T02:00:42.421Z,5.9
2022-11-05T02:01:45.793Z,5.9
2022-11-05T02:02:50.585Z,5.9
2022-11-05T02:03:53.664Z,5.9
2022-11-05T02:04:56.826Z,5.9
2022-11-05T02:06:00.038Z,5.9
2022-11-05T02:07:03.058Z,5.9
2022-11-05T02:08:06.449Z,5.9
2022-11-05T02:09:09.249Z,5.9
2022-11-05T02:10:12.254Z,5.9
2022-11-05T02:11:15.794Z,5.9
2022-11-05T02:12:18.775Z,5.9
2022-11-05T02:13:22.120Z,5.8
2022-11-05T02:14:24.926Z,5.9
2022-11-05T02:15:28.382Z,5.8
2022-11-05T02:16:30.890Z,5.8
2022-11-05T02:17:34.253Z,5.8
2022-11-05T02:18:37.744Z,5.8
2022-11-05T02:19:40.820Z,5.8
2022-11-05T02:20:52.843Z,5.8
2022-11-05T02:21:55.840Z,5.8
2022-11-05T02:22:59.031Z,5.8
2022-11-05T02:24:02.137Z,5.8
2022-11-05T02:25:04.858Z,5.8
2022-11-05T02:26:07.868Z,5.8
2022-11-05T02:27:11.345Z,5.8
2022-11-05T02:28:14.995Z,5.8
2022-11-05T02:29:18.164Z,5.8
2022-11-05T02:30:21.449Z,5.8
2022-11-05T02:31:25.120Z,5.8
2022-11-05T02:32:27.640Z,5.8
2022-11-05T02:33:30.758Z,5.8
2022-11-05T02:34:34.506Z,5.9
2022-11-05T02:35:37.024Z,5.9
2022-11-05T02:36:39.858Z,5.9
2022-11-05T02:37:43.309Z,5.9
2022-11-05T02:38:46.594Z,5.9
2022-11-05T02:39:49.669Z,5.9
2022-11-05T02:40:52.845Z,5.9
2022-11-05T02:42:03.605Z,6
2022-11-05T02:43:08.773Z,6
2022-11-05T02:44:12.564Z,6
2022-11-05T02:45:15.943Z,6
2022-11-05T02:46:19.470Z,6.1
2022-11-05T02:47:22.653Z,6.1
2022-11-05T02:48:25.442Z,6.1
2022-11-05T02:49:27.883Z,6.2
2022-11-05T02:50:31.309Z,6.2
2022-11-05T02:51:35.297Z,6.2
2022-11-05T02:52:38.130Z,6.2
2022-11-05T02:53:40.829Z,6.2
2022-11-05T02:54:43.657Z,6.2
2022-11-05T02:55:46.270Z,6.2
2022-11-05T02:56:49.720Z,6.2
2022-11-05T02:57:52.346Z,6.2
2022-11-05T02:58:55.448Z,6.2
2022-11-05T02:59:57.972Z,6.2
2022-11-05T03:01:01.724Z,6.3
2022-11-05T03:02:05.474Z,6.3
2022-11-05T03:03:10.159Z,6.3
2022-11-05T03:04:13.672Z,6.3
2022-11-05T03:05:16.357Z,6.3
2022-11-05T03:06:19.432Z,6.3
2022-11-05T03:07:22.585Z,6.2
2022-11-05T03:08:26.197Z,6.3
2022-11-05T03:09:28.899Z,6.2
2022-11-05T03:10:31.915Z,6.2
2022-11-05T03:11:35.628Z,6.2
2022-11-05T03:12:38.343Z,6.3
2022-11-05T03:13:41.788Z,6.3
2022-11-05T03:14:45.165Z,6.3
2022-11-05T03:15:48.617Z,6.3
2022-11-05T03:16:51.682Z,6.3
2022-11-05T03:17:53.870Z,6.3
2022-11-05T03:18:57.499Z,6.3
2022-11-05T03:20:00.560Z,6.3
2022-11-05T03:21:03.347Z,6.3
2022-11-05T03:22:06.785Z,6.3
2022-11-05T03:23:12.137Z,6.3
2022-11-05T03:24:15.614Z,6.3
2022-11-05T03:25:18.322Z,6.3
2022-11-05T03:26:21.405Z,6.3
2022-11-05T03:27:24.772Z,6.3
2022-11-05T03:28:27.958Z,6.3
2022-11-05T03:29:30.701Z,6.2
2022-11-05T03:30:34.189Z,6.2
2022-11-05T03:31:37.354Z,6.2
2022-11-05T03:32:40.695Z,6.2
2022-11-05T03:33:43.449Z,6.2
2022-11-05T03:34:46.600Z,6.2
2022-11-05T03:35:48.830Z,6.2
2022-11-05T03:36:52.255Z,6.2
2022-11-05T03:37:55.119Z,6.2
2022-11-05T03:38:57.925Z,6.2
2022-11-05T03:40:01.819Z,6.2
2022-11-05T03:41:04.821Z,6.2
2022-11-05T03:42:08.277Z,6.2
2022-11-05T03:43:14.010Z,6.2
2022-11-05T03:44:17.577Z,6.2
2022-11-05T03:45:20.660Z,6.2
2022-11-05T03:46:23.476Z,6.1
2022-11-05T03:47:25.921Z,6.1
2022-11-05T03:48:29.391Z,6.1
2022-11-05T03:49:32.281Z,6.1
2022-11-05T03:50:43.236Z,6.1
2022-11-05T03:51:46.034Z,6.1
2022-11-05T03:52:48.932Z,6.1
2022-11-05T03:53:51.441Z,6.1
2022-11-05T03:54:54.635Z,6.1
2022-11-05T03:55:59.244Z,6.1
2022-11-05T03:57:02.178Z,6.1
2022-11-05T03:58:05.180Z,6.1
2022-11-05T03:59:07.635Z,6
2022-11-05T04:00:09.890Z,6
2022-11-05T04:01:12.970Z,6
2022-11-05T04:02:16.455Z,6
2022-11-05T04:03:19.744Z,6
2022-11-05T04:04:22.819Z,6
2022-11-05T04:05:25.777Z,6
2022-11-05T04:06:28.862Z,5.9
2022-11-05T04:07:31.853Z,5.9
2022-11-05T04:08:34.757Z,5.9
2022-11-05T04:09:37.671Z,5.9
2022-11-05T04:10:40.469Z,5.9
2022-11-05T04:11:43.746Z,5.8
2022-11-05T04:12:46.925Z,5.8
2022-11-05T04:13:50.392Z,5.8
2022-11-05T04:14:53.421Z,5.8
2022-11-05T04:15:56.329Z,5.8
2022-11-05T04:16:59.165Z,5.8
2022-11-05T04:18:03.051Z,5.8
2022-11-05T04:19:06.785Z,5.8
2022-11-05T04:20:09.932Z,5.8
2022-11-05T04:21:13.128Z,5.8
2022-11-05T04:22:16.343Z,5.8
2022-11-05T04:23:19.152Z,5.8
2022-11-05T04:24:22.058Z,5.8
2022-11-05T04:25:25.202Z,5.8
2022-11-05T04:26:27.766Z,5.8
2022-11-05T04:27:30.602Z,5.7
2022-11-05T04:28:33.858Z,5.7
2022-11-05T04:29:36.653Z,5.7
2022-11-05T04:30:39.385Z,5.7
2022-11-05T04:31:42.192Z,5.7
2022-11-05T04:32:45.665Z,5.7
2022-11-05T04:33:48.586Z,5.7
2022-11-05T04:34:51.380Z,5.6
2022-11-05T04:35:53.629Z,5.6
2022-11-05T04:36:56.527Z,5.6
2022-11-05T04:38:00.047Z,5.6
2022-11-05T04:39:02.481Z,5.6
2022-11-05T04:40:05.557Z,5.6
2022-11-05T04:41:07.867Z,5.6
2022-11-05T04:42:10.947Z,5.5
2022-11-05T04:43:18.956Z,5.6
2022-11-05T04:44:23.051Z,5.5
2022-11-05T04:45:25.947Z,5.6
2022-11-05T04:46:29.039Z,5.5
2022-11-05T04:47:32.130Z,5.5
2022-11-05T04:48:35.293Z,5.5
2022-11-05T04:49:38.198Z,5.5
2022-11-05T04:50:41.263Z,5.5
2022-11-05T04:51:44.724Z,5.5
2022-11-05T04:52:47.904Z,5.5
2022-11-05T04:53:51.007Z,5.5
2022-11-05T04:54:54.290Z,5.5
2022-11-05T04:55:57.458Z,5.5
2022-11-05T04:57:00.322Z,5.5
2022-11-05T04:58:02.769Z,5.5
2022-11-05T04:59:05.312Z,5.5
2022-11-05T05:00:07.755Z,5.5
2022-11-05T05:01:11.378Z,5.5
2022-11-05T05:02:14.751Z,5.4
2022-11-05T05:03:17.668Z,5.4
2022-11-05T05:04:20.336Z,5.4
2022-11-05T05:05:24.192Z,5.4
2022-11-05T05:06:27.693Z,5.4
2022-11-05T05:07:30.239Z,5.4
2022-11-05T05:08:33.097Z,5.4
2022-11-05T05:09:36.704Z,5.3
2022-11-05T05:10:39.856Z,5.3
2022-11-05T05:11:42.563Z,5.4
2022-11-05T05:12:46.092Z,5.4
2022-11-05T05:13:48.881Z,5.4
2022-11-05T05:14:52.391Z,5.4
2022-11-05T05:15:55.096Z,5.4
2022-11-05T05:16:57.899Z,5.4
2022-11-05T05:18:00.551Z,5.4
2022-11-05T05:19:03.610Z,5.4
2022-11-05T05:20:06.428Z,5.4
2022-11-05T05:21:10.258Z,5.4
2022-11-05T05:22:12.691Z,5.4
2022-11-05T05:23:15.548Z,5.4
2022-11-05T05:24:18.573Z,5.4
2022-11-05T05:25:22.017Z,5.4
2022-11-05T05:26:25.181Z,5.4
2022-11-05T05:27:28.254Z,5.4
2022-11-05T05:28:31.050Z,5.4
2022-11-05T05:29:33.501Z,5.4
2022-11-05T05:30:36.488Z,5.5
2022-11-05T05:31:39.935Z,5.4
2022-11-05T05:32:43.224Z,5.4
2022-11-05T05:33:45.774Z,5.4
2022-11-05T05:34:48.678Z,5.3
2022-11-05T05:35:51.594Z,5.3
2022-11-05T05:36:55.387Z,5.3
2022-11-05T05:37:58.459Z,5.3
2022-11-05T05:39:00.917Z,5.3
2022-11-05T05:40:04.275Z,5.3
2022-11-05T05:41:07.716Z,5.3
2022-11-05T05:42:11.141Z,5.2
2022-11-05T05:43:14.601Z,5.2
2022-11-05T05:44:17.115Z,5.2
2022-11-05T05:45:20.539Z,5.2
2022-11-05T05:46:23.443Z,5.2
2022-11-05T05:47:27.162Z,5.2
2022-11-05T05:48:30.524Z,5.1
2022-11-05T05:49:33.549Z,5.1
2022-11-05T05:50:36.705Z,5.1
2022-11-05T05:51:39.902Z,5.1
2022-11-05T05:52:43.470Z,5.1
2022-11-05T05:53:46.081Z,5.1
2022-11-05T05:54:49.525Z,5.1
2022-11-05T05:55:52.265Z,5.1
2022-11-05T05:56:55.640Z,5.1
2022-11-05T05:57:59.519Z,5.1
2022-11-05T05:59:02.045Z,5.1
2022-11-05T06:00:05.766Z,5
2022-11-05T06:01:08.577Z,5
2022-11-05T06:02:17.802Z,5
2022-11-05T06:03:21.360Z,5
2022-11-05T06:04:25.196Z,5.1
2022-11-05T06:05:28.112Z,5.1
2022-11-05T06:06:30.990Z,5.1
2022-11-05T06:07:39.249Z,5.1
2022-11-05T06:08:42.949Z,5.1
2022-11-05T06:09:45.116Z,5.1
2022-11-05T06:10:48.466Z,5.1
2022-11-05T06:11:51.659Z,5.1
2022-11-05T06:12:55.412Z,5
2022-11-05T06:13:59.144Z,5.1
2022-11-05T06:15:02.239Z,5
2022-11-05T06:16:05.387Z,5
2022-11-05T06:17:08.101Z,5
2022-11-05T06:18:10.627Z,5
2022-11-05T06:19:13.703Z,5.1
2022-11-05T06:20:16.454Z,5.1
2022-11-05T06:21:19.751Z,5.1
2022-11-05T06:22:22.836Z,5.1
2022-11-05T06:23:25.363Z,5.1
2022-11-05T06:24:28.191Z,5.1
2022-11-05T06:25:31.259Z,5
2022-11-05T06:26:37.029Z,5
2022-11-05T06:27:39.774Z,5
2022-11-05T06:28:43.607Z,5
2022-11-05T06:29:46.485Z,5
2022-11-05T06:30:49.715Z,5
2022-11-05T06:31:51.868Z,5
2022-11-05T06:32:54.851Z,5.1
2022-11-05T06:33:58.253Z,5.1
2022-11-05T06:35:01.528Z,5.1
2022-11-05T06:36:04.618Z,5.1
2022-11-05T06:37:07.744Z,5.1
2022-11-05T06:38:10.536Z,5.1
2022-11-05T06:39:14.009Z,5.1
2022-11-05T06:40:16.919Z,5
2022-11-05T06:41:19.635Z,5.1
2022-11-05T06:42:22.760Z,5.1
2022-11-05T06:43:25.666Z,5.1
2022-11-05T06:44:28.474Z,5.1
2022-11-05T06:45:31.564Z,5.1
2022-11-05T06:46:34.353Z,5.1
2022-11-05T06:47:37.347Z,5.1
2022-11-05T06:48:40.407Z,5
2022-11-05T06:49:43.516Z,5.1
2022-11-05T06:50:46.041Z,5.1
2022-11-05T06:51:49.038Z,5.1
2022-11-05T06:52:51.771Z,5.1
2022-11-05T06:53:53.929Z,5.1
2022-11-05T06:54:56.832Z,5.1
2022-11-05T06:55:59.182Z,5.2
2022-11-05T06:57:01.788Z,5.2
2022-11-05T06:58:04.894Z,5.2
2022-11-05T06:59:08.060Z,5.2
2022-11-05T07:00:11.493Z,5.2
2022-11-05T07:01:15.036Z,5.2
2022-11-05T07:02:18.709Z,5.2
2022-11-05T07:03:21.729Z,5.2
2022-11-05T07:04:25.076Z,5.2
2022-11-05T07:05:27.889Z,5.3
2022-11-05T07:06:38.651Z,5.3
2022-11-05T07:07:41.844Z,5.3
2022-11-05T07:08:45.136Z,5.3
2022-11-05T07:09:48.757Z,5.3
2022-11-05T07:10:51.901Z,5.3
2022-11-05T07:11:55.647Z,5.3
2022-11-05T07:13:07.686Z,5.3
2022-11-05T07:14:11.815Z,5.4
2022-11-05T07:15:14.774Z,5.4
2022-11-05T07:16:17.579Z,5.4
2022-11-05T07:17:20.921Z,5.4
2022-11-05T07:18:23.361Z,5.4
2022-11-05T07:19:26.706Z,5.5
2022-11-05T07:20:36.544Z,5.5
2022-11-05T07:21:39.346Z,5.5
2022-11-05T07:22:42.612Z,5.5
2022-11-05T07:23:45.704Z,5.6
2022-11-05T07:24:48.797Z,5.6
2022-11-05T07:25:52.168Z,5.6
2022-11-05T07:26:55.554Z,5.7
2022-11-05T07:27:59.077Z,5.7
2022-11-05T07:29:02.592Z,5.8
2022-11-05T07:30:05.749Z,5.8
2022-11-05T07:31:08.975Z,5.9
2022-11-05T07:32:12.131Z,5.9
2022-11-05T07:33:16.661Z,5.9
2022-11-05T07:34:19.387Z,5.9
2022-11-05T07:35:22.181Z,6
2022-11-05T07:36:24.749Z,6
2022-11-05T07:37:27.259Z,6
2022-11-05T07:38:31.258Z,6
2022-11-05T07:39:34.005Z,6
2022-11-05T07:40:36.833Z,6.1
2022-11-05T07:41:39.631Z,6.1
2022-11-05T07:42:43.208Z,6.2
2022-11-05T07:43:46.975Z,6.2
2022-11-05T07:44:50.147Z,6.2
2022-11-05T07:45:53.444Z,6.3
2022-11-05T07:46:56.837Z,6.3
2022-11-05T07:47:59.276Z,6.4
2022-11-05T07:49:02.107Z,6.4
2022-11-05T07:50:05.485Z,6.4
2022-11-05T07:51:08.678Z,6.5
2022-11-05T07:52:12.057Z,6.5
2022-11-05T07:53:16.478Z,6.4
2022-11-05T07:54:19.508Z,6.5
2022-11-05T07:55:22.090Z,6.5
2022-11-05T07:56:25.175Z,6.5
2022-11-05T07:57:27.699Z,6.5
2022-11-05T07:58:31.374Z,6.5
2022-11-05T07:59:34.282Z,6.6
2022-11-05T08:00:37.493Z,6.6
2022-11-05T08:01:42.559Z,6.7
2022-11-05T08:02:47.375Z,6.7
2022-11-05T08:03:50.962Z,6.8
2022-11-05T08:04:54.415Z,6.8
2022-11-05T08:05:57.236Z,6.8
2022-11-05T08:07:00.841Z,6.9
2022-11-05T08:08:04.200Z,6.9
2022-11-05T08:09:07.546Z,7
2022-11-05T08:10:10.432Z,7.1
2022-11-05T08:11:13.539Z,7.2
2022-11-05T08:12:16.268Z,7.2
2022-11-05T08:13:19.056Z,7.3
2022-11-05T08:14:22.235Z,7.4
2022-11-05T08:15:25.273Z,7.4
2022-11-05T08:16:28.063Z,7.5
2022-11-05T08:17:30.953Z,7.5
2022-11-05T08:18:34.414Z,7.6
2022-11-05T08:19:36.934Z,7.7
2022-11-05T08:20:40.117Z,7.8
2022-11-05T08:21:43.241Z,7.9
2022-11-05T08:22:45.840Z,7.9
2022-11-05T08:23:48.837Z,8
2022-11-05T08:24:51.558Z,8.1
2022-11-05T08:25:54.275Z,8.2
2022-11-05T08:26:57.398Z,8.2
2022-11-05T08:28:00.963Z,8.4
2022-11-05T08:29:04.400Z,8.4
2022-11-05T08:30:07.660Z,8.4
2022-11-05T08:31:10.497Z,8.5
2022-11-05T08:32:13.448Z,8.5
2022-11-05T08:33:17.228Z,8.6
2022-11-05T08:34:20.690Z,8.7
2022-11-05T08:35:23.136Z,8.8
2022-11-05T08:36:25.671Z,8.9
2022-11-05T08:37:28.833Z,8.9
2022-11-05T08:38:32.265Z,9
2022-11-05T08:39:34.264Z,9.1
2022-11-05T08:40:37.727Z,9.3
2022-11-05T08:41:41.109Z,9.4
2022-11-05T08:42:44.566Z,9.4
2022-11-05T08:43:47.088Z,9.5
2022-11-05T08:44:49.794Z,9.6
2022-11-05T08:45:53.267Z,9.7
2022-11-05T08:46:56.895Z,9.9
2022-11-05T08:47:59.981Z,10
2022-11-05T08:49:03.349Z,10.1
2022-11-05T08:50:06.920Z,10
2022-11-05T08:51:10.308Z,10.1
2022-11-05T08:52:12.744Z,10.2
2022-11-05T08:53:17.246Z,10.3
2022-11-05T08:54:19.947Z,10.4
2022-11-05T08:55:23.105Z,10.5
2022-11-05T08:56:26.201Z,10.6
2022-11-05T08:57:29.160Z,10.6
2022-11-05T08:58:32.557Z,10.7
2022-11-05T08:59:35.284Z,10.8
2022-11-05T09:00:38.861Z,10.9
2022-11-05T09:01:42.796Z,10.9
2022-11-05T09:02:46.867Z,11
2022-11-05T09:03:50.605Z,11.1
2022-11-05T09:04:52.691Z,11.3
2022-11-05T09:05:54.959Z,11.3
2022-11-05T09:06:57.603Z,11.3
2022-11-05T09:08:02.993Z,11.3
2022-11-05T09:09:06.351Z,11.3
2022-11-05T09:10:08.588Z,11.4
2022-11-05T09:11:11.480Z,11.5
2022-11-05T09:12:15.207Z,11.6
2022-11-05T09:13:23.707Z,11.7
2022-11-05T09:14:27.234Z,11.7
2022-11-05T09:15:30.054Z,11.7
2022-11-05T09:16:32.855Z,11.7
2022-11-05T09:17:36.008Z,11.8
2022-11-05T09:18:39.487Z,11.9
2022-11-05T09:19:42.454Z,11.9
2022-11-05T09:20:45.767Z,11.9
2022-11-05T09:21:49.677Z,11.9
2022-11-05T09:22:53.109Z,11.8
2022-11-05T09:23:56.462Z,11.9
2022-11-05T09:24:59.615Z,12
2022-11-05T09:26:03.016Z,12
2022-11-05T09:27:06.458Z,12.1
2022-11-05T09:28:16.705Z,12.3
2022-11-05T09:29:19.776Z,12.3
2022-11-05T09:30:23.751Z,12.3
2022-11-05T09:31:26.845Z,12.4
2022-11-05T09:32:29.536Z,12.6
2022-11-05T09:33:33.001Z,12.8
2022-11-05T09:34:36.457Z,12.9
2022-11-05T09:35:39.529Z,13
2022-11-05T09:36:45.576Z,13.2
2022-11-05T09:37:48.770Z,13.3
2022-11-05T09:38:52.262Z,13.2
2022-11-05T09:39:55.477Z,13.3
2022-11-05T09:40:58.961Z,13.5
2022-11-05T09:42:01.752Z,13.4
2022-11-05T09:43:04.856Z,13.6
2022-11-05T09:44:08.196Z,13.6
2022-11-05T09:45:11.161Z,13.7
2022-11-05T09:46:14.854Z,13.7
2022-11-05T09:47:17.603Z,13.8
2022-11-05T09:48:20.135Z,13.6
2022-11-05T09:49:23.308Z,13.7
2022-11-05T09:50:26.537Z,13.8
2022-11-05T09:51:29.950Z,13.7
2022-11-05T09:52:33.630Z,13.7
2022-11-05T09:53:37.076Z,13.8
2022-11-05T09:54:40.146Z,14
2022-11-05T09:55:42.590Z,14
2022-11-05T09:56:45.303Z,14.2
2022-11-05T09:57:48.823Z,14.2
2022-11-05T09:58:51.569Z,14.3
2022-11-05T09:59:54.554Z,14.4
2022-11-05T10:00:57.625Z,14.4
2022-11-05T10:02:02.002Z,14.3
2022-11-05T10:03:05.468Z,14.5
2022-11-05T10:04:08.880Z,14.3
2022-11-05T10:05:12.961Z,14.1
2022-11-05T10:06:16.365Z,14.2
2022-11-05T10:07:19.442Z,14.2
2022-11-05T10:08:22.545Z,14.4
2022-11-05T10:09:25.724Z,14.5
2022-11-05T10:10:28.987Z,14.6
2022-11-05T10:11:31.145Z,14.7
2022-11-05T10:12:34.126Z,14.9
2022-11-05T10:13:36.906Z,15.2
2022-11-05T10:14:40.291Z,15.1
2022-11-05T10:15:43.430Z,15.3
2022-11-05T10:16:46.811Z,15.3
2022-11-05T10:17:49.829Z,15.3
2022-11-05T10:18:53.298Z,15.2
2022-11-05T10:19:56.631Z,15.2
2022-11-05T10:20:59.389Z,15.4
2022-11-05T10:22:09.007Z,15.1
2022-11-05T10:23:14.280Z,15.1
2022-11-05T10:24:17.166Z,15.2
2022-11-05T10:25:20.643Z,15.1
2022-11-05T10:26:24.009Z,15.2
2022-11-05T10:27:26.805Z,15.4
2022-11-05T10:28:30.428Z,15.3
2022-11-05T10:29:33.613Z,15.3
2022-11-05T10:30:36.798Z,15.5
2022-11-05T10:31:39.862Z,15.7
2022-11-05T10:32:42.671Z,15.9
2022-11-05T10:33:46.057Z,15.6
2022-11-05T10:34:48.910Z,15.7
2022-11-05T10:35:52.146Z,15.9
2022-11-05T10:36:55.589Z,16.1
2022-11-05T10:37:58.198Z,16.1
2022-11-05T10:39:01.473Z,16.2
2022-11-05T10:40:04.929Z,16.4
2022-11-05T10:41:08.723Z,16.2
2022-11-05T10:42:11.984Z,16.1
2022-11-05T10:43:15.753Z,16.1
2022-11-05T10:44:20.938Z,16
2022-11-05T10:45:24.009Z,16.1
2022-11-05T10:46:27.383Z,16.1
2022-11-05T10:47:30.448Z,16.2
2022-11-05T10:48:33.535Z,16.2
2022-11-05T10:49:40.575Z,16.4
2022-11-05T10:50:43.594Z,16.4
2022-11-05T10:51:46.786Z,16.4
2022-11-05T10:52:49.916Z,16.4
2022-11-05T10:54:02.859Z,16.5
2022-11-05T10:55:05.862Z,16.6
2022-11-05T10:56:08.591Z,16.6
2022-11-05T10:57:12.310Z,16.3
2022-11-05T10:58:15.023Z,16.3
2022-11-05T10:59:18.425Z,16.4
2022-11-05T11:00:21.823Z,16.6
2022-11-05T11:01:25.237Z,16.8
2022-11-05T11:02:28.868Z,17
2022-11-05T11:03:32.077Z,17.1
2022-11-05T11:04:39.664Z,17
2022-11-05T11:05:43.654Z,17
2022-11-05T11:06:46.482Z,16.9
2022-11-05T11:07:49.907Z,16.9
2022-11-05T11:08:52.777Z,16.7
2022-11-05T11:09:55.942Z,16.4
2022-11-05T11:10:59.406Z,16.2
2022-11-05T11:12:02.424Z,16.2
2022-11-05T11:13:05.672Z,16.4
2022-11-05T11:14:08.384Z,16.7
2022-11-05T11:15:11.208Z,16.9
2022-11-05T11:16:14.379Z,16.9
2022-11-05T11:17:17.453Z,16.8
2022-11-05T11:18:20.553Z,16.6
2022-11-05T11:19:23.814Z,16.7
2022-11-05T11:20:26.655Z,16.7
2022-11-05T11:21:30.349Z,16.4
2022-11-05T11:22:33.447Z,16.6
2022-11-05T11:23:35.724Z,16.7
2022-11-05T11:24:38.904Z,16.4
2022-11-05T11:25:41.732Z,16.1
2022-11-05T11:26:44.182Z,16.2
2022-11-05T11:27:47.475Z,16.5
2022-11-05T11:28:50.654Z,16.5
2022-11-05T11:29:53.244Z,16.6
2022-11-05T11:30:56.631Z,16.5
2022-11-05T11:31:59.731Z,16.5
2022-11-05T11:33:02.610Z,16.6
2022-11-05T11:34:05.349Z,16.6
2022-11-05T11:35:08.136Z,16.7
2022-11-05T11:36:11.247Z,16.9
2022-11-05T11:37:20.976Z,16.8
2022-11-05T11:38:23.987Z,16.7
2022-11-05T11:39:27.055Z,16.6
2022-11-05T11:40:29.859Z,16.7
2022-11-05T11:41:33.556Z,16.7
2022-11-05T11:42:36.632Z,16.6
2022-11-05T11:43:40.276Z,16.3
2022-11-05T11:44:43.870Z,16.5
2022-11-05T11:45:48.535Z,16.6
2022-11-05T11:46:51.527Z,16.7
2022-11-05T11:47:54.241Z,16.6
2022-11-05T11:48:57.125Z,16.9
2022-11-05T11:49:59.592Z,17
2022-11-05T11:51:02.584Z,17
2022-11-05T11:52:05.018Z,17.1
2022-11-05T11:53:08.052Z,17
2022-11-05T11:54:11.227Z,17.1
2022-11-05T11:55:14.459Z,17.1
2022-11-05T11:56:18.649Z,17
2022-11-05T11:57:22.745Z,17.1
2022-11-05T11:58:25.546Z,16.9
2022-11-05T12:00:10.974Z,16.8
2022-11-05T12:01:14.592Z,17
2022-11-05T12:02:18.894Z,17.2
2022-11-05T12:03:23.341Z,17.4
2022-11-05T12:04:27.157Z,17.4
2022-11-05T12:05:30.590Z,17.4
2022-11-05T12:06:33.855Z,17.3
2022-11-05T12:07:36.292Z,17.2
2022-11-05T12:09:05.318Z,17.1
2022-11-05T12:10:09.563Z,16.7
2022-11-05T12:11:11.788Z,16.4
2022-11-05T12:12:14.959Z,16.5
2022-11-05T12:13:18.605Z,16.5
2022-11-05T12:14:21.883Z,16.4
2022-11-05T12:15:24.920Z,16.3
2022-11-05T12:16:28.036Z,16.2
2022-11-05T12:17:30.680Z,16.2
2022-11-05T12:18:32.858Z,16.3
2022-11-05T12:19:35.318Z,16.4
2022-11-05T12:20:37.834Z,16.7
2022-11-05T12:21:54.809Z,16.9
2022-11-05T12:22:58.077Z,17
2022-11-05T12:24:01.438Z,17.1
2022-11-05T12:25:04.509Z,17.1
2022-11-05T12:26:06.685Z,16.7
2022-11-05T12:27:09.480Z,16.8
2022-11-05T12:28:12.852Z,16.6
2022-11-05T12:29:21.369Z,16.5
2022-11-05T12:30:24.464Z,16.4
2022-11-05T12:31:27.203Z,16.1
2022-11-05T12:32:31.194Z,16
2022-11-05T12:33:33.606Z,15.9
2022-11-05T12:34:36.330Z,15.7
2022-11-05T12:35:58.022Z,15.8
2022-11-05T12:37:02.046Z,16
2022-11-05T12:38:05.146Z,15.9
2022-11-05T12:39:08.464Z,15.8
2022-11-05T12:40:10.760Z,15.5
2022-11-05T12:41:13.850Z,15.4
2022-11-05T12:42:17.016Z,15.4
2022-11-05T12:43:20.725Z,15.5
2022-11-05T12:44:23.904Z,15.4
2022-11-05T12:45:26.716Z,15.2
2022-11-05T12:46:30.106Z,15.3
2022-11-05T12:47:33.565Z,15.2
2022-11-05T12:48:39.299Z,15.2
2022-11-05T12:49:42.573Z,15.3
2022-11-05T12:50:45.301Z,15.3
2022-11-05T12:51:48.051Z,15.4
2022-11-05T12:52:51.477Z,15.1
2022-11-05T12:53:54.309Z,15
2022-11-05T12:54:57.695Z,14.9
2022-11-05T12:56:01.434Z,15
2022-11-05T12:57:04.809Z,15
2022-11-05T12:58:07.621Z,14.9
2022-11-05T12:59:10.511Z,15
2022-11-05T13:00:13.793Z,14.7
2022-11-05T13:01:16.607Z,14.8
2022-11-05T13:02:21.169Z,14.9
2022-11-05T13:03:24.657Z,15
2022-11-05T13:04:28.033Z,15.1
2022-11-05T13:05:30.831Z,15.2
2022-11-05T13:06:33.962Z,15.3
2022-11-05T13:07:36.512Z,15.4
2022-11-05T13:08:39.603Z,15.3
2022-11-05T13:09:42.676Z,15.4
2022-11-05T13:10:46.037Z,15.3
2022-11-05T13:11:49.442Z,15.2
2022-11-05T13:12:52.314Z,15.1
2022-11-05T13:13:55.109Z,15.1
2022-11-05T13:14:58.186Z,15.1
2022-11-05T13:16:01.654Z,15.1
2022-11-05T13:17:04.720Z,15.1
2022-11-05T13:18:07.615Z,15
2022-11-05T13:19:11.086Z,14.9
2022-11-05T13:20:19.506Z,14.7
2022-11-05T13:21:22.710Z,14.5
2022-11-05T13:22:25.521Z,14.6
2022-11-05T13:23:28.425Z,14.4
2022-11-05T13:24:31.875Z,14.5
2022-11-05T13:25:34.983Z,14.4
2022-11-05T13:26:37.989Z,14.4
2022-11-05T13:27:40.886Z,14.3
2022-11-05T13:28:44.518Z,14.2
2022-11-05T13:29:47.320Z,14.1
2022-11-05T13:30:50.222Z,14
2022-11-05T13:31:53.687Z,13.8
2022-11-05T13:32:56.682Z,13.7
2022-11-05T13:33:59.234Z,13.5
2022-11-05T13:35:03.277Z,13.4
2022-11-05T13:36:06.344Z,13.4
2022-11-05T13:37:09.152Z,13.3
2022-11-05T13:38:12.114Z,13.1
2022-11-05T13:39:15.628Z,13.1
2022-11-05T13:40:19.274Z,13.1
2022-11-05T13:41:21.821Z,13
2022-11-05T13:42:24.997Z,12.9
2022-11-05T13:43:28.350Z,12.9
2022-11-05T13:44:31.389Z,12.9
2022-11-05T13:45:35.013Z,12.9
2022-11-05T13:46:38.095Z,12.9
2022-11-05T13:47:41.557Z,12.8
2022-11-05T13:48:44.907Z,12.7
2022-11-05T13:49:47.469Z,12.7
2022-11-05T13:50:51.215Z,12.5
2022-11-05T13:51:54.570Z,12.4
2022-11-05T13:52:57.171Z,12.4
2022-11-05T13:53:59.916Z,12.5
2022-11-05T13:55:04.629Z,12.4
2022-11-05T13:56:07.868Z,12.5
2022-11-05T13:57:10.937Z,12.5
2022-11-05T13:58:13.576Z,12.5
2022-11-05T13:59:16.747Z,12.5
2022-11-05T14:00:20.774Z,12.5
2022-11-05T14:01:24.718Z,12.5
2022-11-05T14:02:28.875Z,12.4
2022-11-05T14:03:32.152Z,12.4
2022-11-05T14:04:34.762Z,12.2
2022-11-05T14:05:38.592Z,12.2
2022-11-05T14:06:42.690Z,12.3
2022-11-05T14:07:46.116Z,12.3
2022-11-05T14:08:49.393Z,12.3
2022-11-05T14:09:52.107Z,12.3
2022-11-05T14:10:55.289Z,12.2
2022-11-05T14:11:57.893Z,12.1
2022-11-05T14:13:01.234Z,12
2022-11-05T14:14:05.003Z,11.9
2022-11-05T14:15:08.097Z,11.8
2022-11-05T14:16:11.144Z,11.8
2022-11-05T14:17:13.316Z,11.9
2022-11-05T14:18:16.399Z,11.9
2022-11-05T14:19:19.600Z,11.9
2022-11-05T14:20:22.476Z,11.8
2022-11-05T14:21:25.831Z,11.9
2022-11-05T14:22:29.283Z,11.9
2022-11-05T14:23:31.797Z,11.8
2022-11-05T14:24:35.532Z,11.8
2022-11-05T14:25:38.487Z,11.7
2022-11-05T14:26:41.867Z,11.7
2022-11-05T14:27:45.016Z,11.7